Time;durP1;ratioP1;P1;durP2;ratioP2;P2;SDS_P1;SDS_P2;PMS_P1;PMS_P2;Temp;Humidity;BMP_temperature;BMP_pressure;BME280_temperature;BME280_humidity;BME280_pressure;Samples;Min_cycle;Max_cycle;Signal;HPM_P1;HPM_P2
2024/02/23 00:00:27;;;;;;;1.65;1.42;;;7.50;87.70;;;;;;4997248;28;20420;-86
2024/02/23 00:02:57;;;;;;;3.28;1.00;;;7.60;88.20;;;;;;4998385;28;20026;-86
2024/02/23 00:05:23;;;;;;;3.75;1.23;;;7.50;87.70;;;;;;4992545;28;20072;-87
2024/02/23 00:07:49;;;;;;;2.55;1.88;;;7.50;86.50;;;;;;4997078;28;20500;-87
2024/02/23 00:10:15;;;;;;;3.30;0.98;;;7.50;86.40;;;;;;4998655;28;20049;-87
2024/02/23 00:12:43;;;;;;;4.10;1.98;;;7.50;85.90;;;;;;4990986;28;20443;-88
2024/02/23 00:15:09;;;;;;;5.75;1.75;;;7.50;85.70;;;;;;4992085;28;20027;-86
2024/02/23 00:17:34;;;;;;;4.10;0.90;;;7.50;86.30;;;;;;4997332;28;20035;-87
2024/02/23 00:20:00;;;;;;;5.32;1.15;;;7.50;85.40;;;;;;5010408;28;20076;-87
2024/02/23 00:22:26;;;;;;;4.25;1.35;;;7.50;86.00;;;;;;5016982;28;20345;-86
2024/02/23 00:24:51;;;;;;;1.65;0.82;;;7.40;85.70;;;;;;4997272;28;20268;-87
2024/02/23 00:27:17;;;;;;;1.58;1.13;;;7.40;85.20;;;;;;4996924;28;20492;-88
2024/02/23 00:29:43;;;;;;;3.75;0.90;;;7.40;86.40;;;;;;4997135;28;20027;-87
2024/02/23 00:32:08;;;;;;;4.25;1.75;;;7.40;87.00;;;;;;4997790;28;20030;-86
2024/02/23 00:34:34;;;;;;;5.43;1.33;;;7.30;87.70;;;;;;4988666;28;20026;-87
2024/02/23 00:37:00;;;;;;;2.28;0.88;;;7.30;88.10;;;;;;4988351;28;20038;-87
2024/02/23 00:39:25;;;;;;;2.70;0.65;;;7.20;86.50;;;;;;4996154;28;20018;-87
2024/02/23 00:41:51;;;;;;;3.42;1.05;;;7.20;87.80;;;;;;4996304;28;20033;-88
2024/02/23 00:44:16;;;;;;;2.50;1.02;;;7.20;86.90;;;;;;4992899;28;20496;-87
2024/02/23 00:46:42;;;;;;;2.80;1.10;;;7.20;84.70;;;;;;5064672;28;20048;-87
2024/02/23 00:49:08;;;;;;;5.75;2.75;;;7.20;85.10;;;;;;5018363;28;20651;-87
2024/02/23 00:51:33;;;;;;;3.00;1.27;;;7.30;85.50;;;;;;4994922;28;20023;-86
2024/02/23 00:53:59;;;;;;;2.90;0.63;;;7.20;86.10;;;;;;4996710;28;20030;-86
2024/02/23 00:56:25;;;;;;;1.73;1.38;;;7.20;85.60;;;;;;4995974;28;20046;-86
2024/02/23 00:58:51;;;;;;;4.15;1.85;;;7.20;86.20;;;;;;4996856;28;20489;-87
2024/02/23 01:01:17;;;;;;;4.28;0.93;;;7.20;84.90;;;;;;4993388;28;20046;-87
2024/02/23 01:03:42;;;;;;;5.43;1.42;;;7.20;83.70;;;;;;4992512;28;20045;-87
2024/02/23 01:06:08;;;;;;;2.78;1.48;;;7.20;84.70;;;;;;4987179;28;20066;-87
2024/02/23 01:08:34;;;;;;;2.60;1.05;;;7.20;84.20;;;;;;4992667;28;20052;-87
2024/02/23 01:11:00;;;;;;;6.10;2.10;;;7.20;85.90;;;;;;4995370;28;20029;-87
2024/02/23 01:13:25;;;;;;;5.53;1.58;;;7.10;85.60;;;;;;4996047;28;20023;-86
2024/02/23 01:15:51;;;;;;;1.83;1.27;;;7.10;84.70;;;;;;4994990;28;20034;-86
2024/02/23 01:18:17;;;;;;;2.53;1.20;;;7.10;85.40;;;;;;4996459;28;20477;-87
2024/02/23 01:20:42;;;;;;;2.65;0.82;;;7.10;82.00;;;;;;4996486;28;20027;-87
2024/02/23 01:23:08;;;;;;;3.67;2.25;;;7.20;83.30;;;;;;4988096;28;20030;-86
2024/02/23 01:25:34;;;;;;;2.08;1.63;;;7.20;84.50;;;;;;4996810;28;20018;-87
2024/02/23 01:28:00;;;;;;;7.05;1.55;;;7.10;85.20;;;;;;5030664;28;20034;-86
2024/02/23 01:30:26;;;;;;;1.95;1.58;;;7.00;85.40;;;;;;4984482;28;20039;-88
2024/02/23 01:32:51;;;;;;;7.40;1.42;;;7.00;85.60;;;;;;5003704;28;20095;-89
2024/02/23 01:35:17;;;;;;;4.47;0.90;;;7.00;86.20;;;;;;5012346;28;20038;-87
2024/02/23 01:37:43;;;;;;;6.78;1.42;;;7.00;86.00;;;;;;4987638;28;20071;-87
2024/02/23 01:40:09;;;;;;;2.88;1.27;;;6.90;86.60;;;;;;4987679;28;20027;-86
2024/02/23 01:42:34;;;;;;;1.00;0.73;;;6.90;85.10;;;;;;4995646;28;20027;-88
2024/02/23 01:45:01;;;;;;;1.25;0.80;;;6.90;84.20;;;;;;4983079;28;20027;-88
2024/02/23 01:47:28;;;;;;;4.03;1.15;;;7.00;83.60;;;;;;5018256;28;20027;-87
2024/02/23 01:49:56;;;;;;;1.63;0.73;;;6.90;85.10;;;;;;4994352;28;20029;-89
2024/02/23 01:52:21;;;;;;;3.53;1.02;;;6.90;83.90;;;;;;4995784;28;20027;-87
2024/02/23 01:54:47;;;;;;;8.23;0.95;;;6.90;84.80;;;;;;4995712;28;20072;-87
2024/02/23 01:57:14;;;;;;;4.35;0.82;;;6.80;84.80;;;;;;4995996;28;20099;-88
2024/02/23 01:59:40;;;;;;;3.08;1.40;;;6.90;84.40;;;;;;4989529;28;20080;-87
2024/02/23 02:02:06;;;;;;;1.90;0.88;;;6.80;83.50;;;;;;4994781;28;20489;-88
2024/02/23 02:04:32;;;;;;;2.13;0.70;;;6.80;82.70;;;;;;4995258;28;20038;-88
2024/02/23 02:06:59;;;;;;;2.10;1.00;;;6.90;82.30;;;;;;5024681;28;20023;-86
2024/02/23 02:09:25;;;;;;;2.03;0.80;;;6.90;82.60;;;;;;4995306;28;20030;-87
2024/02/23 02:11:51;;;;;;;2.30;1.23;;;6.90;81.50;;;;;;4994654;28;20075;-88
2024/02/23 02:14:17;;;;;;;1.33;0.90;;;6.80;81.90;;;;;;4993563;28;20007;-87
2024/02/23 02:16:44;;;;;;;1.00;0.75;;;6.90;82.80;;;;;;5027103;28;20028;-88
2024/02/23 02:19:10;;;;;;;3.70;0.80;;;6.90;81.20;;;;;;4994486;28;20022;-88
2024/02/23 02:21:37;;;;;;;1.55;0.77;;;6.90;82.10;;;;;;5028367;28;20030;-87
2024/02/23 02:24:03;;;;;;;2.38;0.90;;;6.90;83.90;;;;;;4994556;28;20037;-87
2024/02/23 02:26:29;;;;;;;2.95;1.73;;;6.80;84.10;;;;;;4990759;28;20425;-87
2024/02/23 02:28:55;;;;;;;1.85;0.90;;;6.80;85.00;;;;;;4994980;28;20042;-87
2024/02/23 02:31:20;;;;;;;3.42;0.80;;;6.80;85.80;;;;;;4985483;28;20051;-88
2024/02/23 02:33:46;;;;;;;1.90;1.27;;;6.70;86.50;;;;;;4986411;28;20084;-88
2024/02/23 02:36:12;;;;;;;1.73;0.93;;;6.70;86.00;;;;;;4994640;28;20035;-87
2024/02/23 02:38:38;;;;;;;1.48;0.70;;;6.70;85.80;;;;;;4995589;28;20542;-86
2024/02/23 02:41:05;;;;;;;1.80;1.33;;;6.70;86.30;;;;;;4990999;28;20019;-87
2024/02/23 02:43:31;;;;;;;0.90;0.77;;;6.70;84.80;;;;;;4990641;28;20102;-89
2024/02/23 02:45:57;;;;;;;3.80;1.10;;;6.70;85.90;;;;;;5033875;28;20075;-87
2024/02/23 02:48:23;;;;;;;0.77;0.70;;;6.60;85.60;;;;;;5076291;28;20023;-88
2024/02/23 02:50:49;;;;;;;1.95;0.98;;;6.70;84.90;;;;;;5004891;28;20026;-89
2024/02/23 02:53:15;;;;;;;4.13;0.88;;;6.70;85.70;;;;;;4999914;28;20029;-88
2024/02/23 02:55:45;;;;;;;1.95;1.70;;;6.70;86.20;;;;;;4996330;28;20374;-88
2024/02/23 02:58:14;;;;;;;3.40;0.95;;;6.70;85.90;;;;;;4995182;28;20026;-87
2024/02/23 03:00:39;;;;;;;1.27;0.50;;;6.70;86.00;;;;;;4998327;28;20032;-88
2024/02/23 03:03:05;;;;;;;1.85;1.15;;;6.70;83.10;;;;;;5007624;28;20030;-89
2024/02/23 03:05:31;;;;;;;2.55;0.95;;;6.70;83.50;;;;;;4996217;28;20015;-88
2024/02/23 03:07:57;;;;;;;3.15;1.13;;;6.70;83.20;;;;;;4999955;28;20543;-88
2024/02/23 03:10:22;;;;;;;3.97;0.80;;;6.70;82.60;;;;;;5033754;28;20024;-88
2024/02/23 03:12:48;;;;;;;2.53;1.00;;;6.60;81.30;;;;;;5049614;28;20033;-87
2024/02/23 03:15:14;;;;;;;3.35;0.80;;;6.60;81.70;;;;;;5029248;28;20517;-89
2024/02/23 03:17:39;;;;;;;4.07;1.23;;;6.50;80.40;;;;;;5019136;28;20023;-86
2024/02/23 03:20:08;;;;;;;2.53;0.73;;;6.50;78.60;;;;;;4997791;28;20029;-87
2024/02/23 03:22:37;;;;;;;2.88;1.30;;;6.50;77.50;;;;;;4993538;28;20050;-87
2024/02/23 03:25:08;;;;;;;2.20;1.00;;;6.50;77.90;;;;;;4995577;28;20042;-87
2024/02/23 03:27:36;;;;;;;3.13;1.25;;;6.50;78.40;;;;;;4994265;28;20059;-88
2024/02/23 03:30:02;;;;;;;2.15;1.70;;;6.50;76.70;;;;;;4994727;28;20420;-88
2024/02/23 03:32:28;;;;;;;1.52;0.88;;;6.40;78.00;;;;;;4994793;28;20022;-88
2024/02/23 03:34:53;;;;;;;2.72;0.95;;;6.50;77.10;;;;;;4994612;28;20086;-88
2024/02/23 03:37:19;;;;;;;2.58;0.93;;;6.40;77.30;;;;;;4994347;28;20030;-87
2024/02/23 03:39:48;;;;;;;3.08;2.88;;;6.50;77.30;;;;;;4987022;28;20228;-87
2024/02/23 03:42:15;;;;;;;3.35;1.15;;;6.50;77.60;;;;;;4993252;28;20025;-87
2024/02/23 03:44:42;;;;;;;3.70;2.58;;;6.50;78.30;;;;;;4992069;28;20505;-88
2024/02/23 03:47:08;;;;;;;6.32;1.75;;;6.50;78.20;;;;;;5075184;28;20030;-88
2024/02/23 03:49:33;;;;;;;2.25;0.65;;;6.50;78.70;;;;;;5044052;28;20030;-88
2024/02/23 03:51:59;;;;;;;4.38;1.20;;;6.50;79.70;;;;;;4987471;28;20093;-88
2024/02/23 03:54:25;;;;;;;2.08;0.50;;;6.50;79.00;;;;;;4993904;28;20101;-88
2024/02/23 03:56:50;;;;;;;2.70;2.05;;;6.40;80.30;;;;;;4993174;28;20026;-87
2024/02/23 03:59:16;;;;;;;3.67;1.83;;;6.50;79.00;;;;;;4994597;28;20109;-88
2024/02/23 04:01:42;;;;;;;2.90;1.10;;;6.50;79.20;;;;;;4993191;28;20019;-88
2024/02/23 04:04:07;;;;;;;1.48;0.93;;;6.40;79.20;;;;;;4993942;28;20125;-87
2024/02/23 04:06:36;;;;;;;3.08;1.35;;;6.40;80.10;;;;;;4992482;28;20038;-88
2024/02/23 04:09:04;;;;;;;3.50;1.52;;;6.40;79.60;;;;;;4994606;28;20425;-86
2024/02/23 04:11:30;;;;;;;2.45;0.82;;;6.40;79.50;;;;;;4993583;28;20027;-88
2024/02/23 04:13:56;;;;;;;2.47;0.80;;;6.40;80.80;;;;;;4991494;28;20042;-87
2024/02/23 04:16:24;;;;;;;3.80;1.33;;;6.40;80.40;;;;;;4993925;28;20031;-87
2024/02/23 04:18:49;;;;;;;3.92;0.73;;;6.40;80.10;;;;;;4984919;28;20566;-87
2024/02/23 04:21:15;;;;;;;1.10;1.08;;;6.40;79.90;;;;;;4993548;28;20027;-87
2024/02/23 04:23:41;;;;;;;1.92;1.20;;;6.40;80.10;;;;;;4993008;28;20025;-88
2024/02/23 04:26:06;;;;;;;1.60;1.40;;;6.40;79.90;;;;;;4993704;28;20052;-87
2024/02/23 04:28:33;;;;;;;2.03;1.05;;;6.40;79.10;;;;;;4992986;28;20027;-88
2024/02/23 04:30:59;;;;;;;4.40;1.48;;;6.40;78.60;;;;;;4992575;28;20014;-88
2024/02/23 04:33:25;;;;;;;2.05;1.33;;;6.40;78.70;;;;;;5027473;28;20038;-87
2024/02/23 04:35:50;;;;;;;1.65;1.00;;;6.40;79.40;;;;;;4985500;28;20115;-87
2024/02/23 04:38:16;;;;;;;2.25;1.02;;;6.30;79.20;;;;;;4985169;28;20031;-87
2024/02/23 04:40:42;;;;;;;2.03;1.75;;;6.30;78.90;;;;;;4977448;28;20035;-88
2024/02/23 04:43:07;;;;;;;4.75;1.15;;;6.30;78.00;;;;;;4976434;28;20038;-88
2024/02/23 04:45:33;;;;;;;1.90;0.82;;;6.30;77.80;;;;;;4992815;28;20039;-88
2024/02/23 04:47:58;;;;;;;1.67;0.95;;;6.30;75.80;;;;;;5029362;28;20030;-88
2024/02/23 04:50:24;;;;;;;2.88;0.93;;;6.30;76.40;;;;;;5018349;28;20065;-86
2024/02/23 04:52:50;;;;;;;2.45;0.90;;;6.30;76.20;;;;;;4996067;28;20030;-88
2024/02/23 04:55:15;;;;;;;3.05;1.08;;;6.40;75.70;;;;;;4991074;28;20027;-88
2024/02/23 04:57:41;;;;;;;1.98;1.23;;;6.30;75.70;;;;;;4994588;28;20152;-87
2024/02/23 05:00:07;;;;;;;2.63;1.13;;;6.30;76.10;;;;;;4996459;28;20049;-87
2024/02/23 05:02:35;;;;;;;6.55;1.38;;;6.40;76.50;;;;;;4979069;28;20124;-87
2024/02/23 05:05:04;;;;;;;2.45;0.95;;;6.30;76.40;;;;;;4978171;28;20067;-87
2024/02/23 05:07:31;;;;;;;4.00;1.33;;;6.30;76.90;;;;;;4979102;28;20058;-87
2024/02/23 05:09:56;;;;;;;1.88;1.38;;;6.30;75.90;;;;;;4977906;28;20050;-87
2024/02/23 05:12:22;;;;;;;3.05;1.45;;;6.30;76.20;;;;;;4977159;28;20027;-88
2024/02/23 05:14:47;;;;;;;3.33;1.55;;;6.30;77.10;;;;;;4989263;28;20035;-88
2024/02/23 05:17:13;;;;;;;2.13;1.05;;;6.30;76.60;;;;;;4989444;28;20031;-87
2024/02/23 05:19:39;;;;;;;2.03;1.33;;;6.20;76.50;;;;;;5004137;28;20015;-89
2024/02/23 05:22:04;;;;;;;3.70;1.17;;;6.20;76.90;;;;;;4984434;28;20019;-87
2024/02/23 05:24:32;;;;;;;2.40;1.13;;;6.30;77.10;;;;;;5017442;28;20028;-87
2024/02/23 05:27:02;;;;;;;1.42;0.95;;;6.20;76.70;;;;;;5020794;28;20035;-88
2024/02/23 05:29:28;;;;;;;2.45;1.35;;;6.20;77.50;;;;;;4976659;28;20084;-88
2024/02/23 05:31:54;;;;;;;2.60;0.98;;;6.10;77.90;;;;;;4999003;28;20498;-88
2024/02/23 05:34:19;;;;;;;1.35;1.05;;;6.10;77.90;;;;;;5020574;28;20055;-90
2024/02/23 05:36:46;;;;;;;1.38;1.27;;;6.10;78.00;;;;;;5010193;28;20117;-89
2024/02/23 05:39:12;;;;;;;2.05;0.90;;;6.10;78.10;;;;;;5010185;28;20043;-88
2024/02/23 05:41:38;;;;;;;1.98;0.82;;;6.00;78.60;;;;;;4998077;28;20027;-88
2024/02/23 05:44:05;;;;;;;0.88;0.88;;;6.00;77.20;;;;;;4981743;28;20018;-87
2024/02/23 05:46:35;;;;;;;2.20;1.45;;;6.00;78.80;;;;;;4976653;28;20054;-89
2024/02/23 05:49:02;;;;;;;1.70;0.70;;;5.80;78.10;;;;;;4976772;28;20027;-88
2024/02/23 05:51:31;;;;;;;3.80;0.98;;;5.80;77.80;;;;;;5034895;28;20036;-89
2024/02/23 05:53:58;;;;;;;3.05;2.85;;;5.80;77.30;;;;;;4997245;28;20187;-87
2024/02/23 05:56:24;;;;;;;1.92;1.45;;;5.70;77.30;;;;;;4997486;28;20026;-87
2024/02/23 05:58:51;;;;;;;2.28;1.05;;;5.70;77.20;;;;;;4998431;28;20025;-87
2024/02/23 06:01:17;;;;;;;4.85;1.08;;;5.70;77.10;;;;;;5015319;28;20057;-87
2024/02/23 06:03:42;;;;;;;2.25;1.00;;;5.70;77.80;;;;;;4982331;28;20485;-88
2024/02/23 06:06:08;;;;;;;1.67;1.30;;;5.60;77.20;;;;;;4995668;28;20027;-87
2024/02/23 06:08:34;;;;;;;2.63;1.27;;;5.60;77.00;;;;;;4996341;28;20481;-88
2024/02/23 06:11:00;;;;;;;2.55;0.90;;;5.60;77.60;;;;;;5007460;28;20023;-88
2024/02/23 06:13:25;;;;;;;1.63;1.17;;;5.50;77.00;;;;;;4986819;28;20045;-88
2024/02/23 06:15:51;;;;;;;1.67;1.33;;;5.60;76.50;;;;;;4989799;28;20027;-89
2024/02/23 06:18:17;;;;;;;4.10;1.30;;;5.60;76.50;;;;;;4973967;28;20042;-88
2024/02/23 06:20:43;;;;;;;5.20;1.17;;;5.50;77.50;;;;;;4982697;28;20036;-88
2024/02/23 06:23:08;;;;;;;2.47;0.95;;;5.60;77.50;;;;;;5011747;28;20080;-88
2024/02/23 06:25:34;;;;;;;3.00;1.30;;;5.60;77.00;;;;;;4987421;28;20058;-88
2024/02/23 06:28:00;;;;;;;1.65;1.55;;;5.60;77.40;;;;;;5024234;28;20025;-88
2024/02/23 06:30:25;;;;;;;1.77;1.10;;;5.60;78.10;;;;;;5012152;28;20048;-87
2024/02/23 06:32:51;;;;;;;2.53;1.73;;;5.70;78.60;;;;;;4993801;28;20587;-88
2024/02/23 06:35:17;;;;;;;8.27;3.30;;;5.70;79.30;;;;;;5004290;28;20412;-88
2024/02/23 06:37:42;;;;;;;10.65;1.35;;;5.60;79.60;;;;;;4997150;28;20137;-89
2024/02/23 06:40:08;;;;;;;1.27;1.10;;;5.70;79.80;;;;;;5014117;28;20053;-88
2024/02/23 06:42:34;;;;;;;4.03;1.17;;;5.70;80.60;;;;;;5018678;28;20054;-88
2024/02/23 06:45:00;;;;;;;1.80;0.80;;;5.70;81.80;;;;;;5002857;28;20036;-89
2024/02/23 06:47:26;;;;;;;2.53;1.40;;;5.70;82.80;;;;;;5021638;28;20032;-86
2024/02/23 06:49:58;;;;;;;4.97;1.10;;;5.70;83.90;;;;;;4986944;28;20045;-89
2024/02/23 06:52:26;;;;;;;3.55;1.73;;;5.70;84.60;;;;;;4983930;28;20038;-88
2024/02/23 06:54:51;;;;;;;2.78;1.00;;;5.60;84.90;;;;;;4976631;28;20056;-88
2024/02/23 06:57:17;;;;;;;4.90;1.60;;;5.60;85.00;;;;;;4993786;28;20136;-89
2024/02/23 06:59:46;;;;;;;2.28;1.58;;;5.70;83.90;;;;;;4994301;28;20051;-88
2024/02/23 07:02:11;;;;;;;4.78;1.58;;;5.60;83.70;;;;;;4978048;28;20037;-87
2024/02/23 07:04:37;;;;;;;4.32;1.38;;;5.60;83.40;;;;;;4991639;28;20086;-87
2024/02/23 07:07:08;;;;;;;2.13;1.48;;;5.60;83.10;;;;;;5000129;28;20069;-88
2024/02/23 07:09:36;;;;;;;3.75;1.50;;;5.60;83.80;;;;;;4989287;28;20490;-88
2024/02/23 07:12:02;;;;;;;2.80;1.35;;;5.60;83.70;;;;;;4983858;28;20027;-87
2024/02/23 07:14:28;;;;;;;4.88;1.67;;;5.60;84.10;;;;;;4977655;28;20079;-88
2024/02/23 07:16:54;;;;;;;5.18;1.63;;;5.50;84.00;;;;;;4985559;28;20154;-88
2024/02/23 07:19:20;;;;;;;1.38;1.27;;;5.60;83.40;;;;;;4979482;28;20473;-88
2024/02/23 07:21:46;;;;;;;2.92;0.95;;;5.60;83.40;;;;;;4983197;28;20022;-88
2024/02/23 07:24:12;;;;;;;1.80;1.15;;;5.60;83.40;;;;;;4993607;28;20040;-88
2024/02/23 07:26:37;;;;;;;2.85;2.63;;;5.60;83.00;;;;;;4985516;28;20517;-88
2024/02/23 07:29:06;;;;;;;2.92;1.25;;;5.60;83.60;;;;;;4997980;28;20026;-88
2024/02/23 07:31:32;;;;;;;7.38;1.50;;;5.60;82.40;;;;;;4978827;28;20042;-87
2024/02/23 07:33:58;;;;;;;2.25;1.10;;;5.60;82.40;;;;;;4992118;28;20042;-88
2024/02/23 07:36:24;;;;;;;3.40;1.13;;;5.60;82.70;;;;;;4986514;28;20058;-88
2024/02/23 07:38:50;;;;;;;1.92;1.08;;;5.60;83.50;;;;;;4976785;28;20048;-88
2024/02/23 07:41:27;;;;;;;4.45;1.58;;;5.60;82.90;;;;;;4980721;28;20056;-88
2024/02/23 07:43:55;;;;;;;3.58;1.35;;;5.70;82.90;;;;;;4976465;28;20614;-88
2024/02/23 07:46:22;;;;;;;3.00;1.30;;;5.80;83.00;;;;;;4983684;28;20057;-89
2024/02/23 07:48:48;;;;;;;2.75;0.93;;;5.90;83.00;;;;;;4985475;28;20454;-87
2024/02/23 07:51:14;;;;;;;2.55;1.33;;;5.90;81.80;;;;;;4987376;28;20111;-87
2024/02/23 07:53:39;;;;;;;1.92;1.25;;;6.00;81.30;;;;;;4981858;28;20160;-88
2024/02/23 07:56:07;;;;;;;2.55;1.58;;;6.00;82.00;;;;;;4989232;28;20056;-89
2024/02/23 07:58:36;;;;;;;;;;;6.10;80.90;;;;;;4978928;28;20055;-87
2024/02/23 08:01:02;;;;;;;3.13;2.80;;;6.20;81.40;;;;;;4995546;28;20091;-87
2024/02/23 08:03:28;;;;;;;4.85;2.15;;;6.30;78.00;;;;;;4997319;28;20027;-89
2024/02/23 08:05:54;;;;;;;2.00;1.15;;;6.30;77.70;;;;;;4979043;28;20465;-88
2024/02/23 08:08:22;;;;;;;2.38;1.70;;;6.40;76.20;;;;;;5000315;28;20046;-89
2024/02/23 08:10:48;;;;;;;2.78;1.30;;;6.40;76.50;;;;;;4996367;28;20384;-88
2024/02/23 08:13:13;;;;;;;6.15;1.05;;;6.50;76.30;;;;;;4992034;28;20026;-88
2024/02/23 08:15:39;;;;;;;1.15;0.85;;;6.60;74.90;;;;;;4994824;28;20026;-89
2024/02/23 08:18:05;;;;;;;2.25;1.20;;;6.70;73.10;;;;;;4980791;28;20033;-88
2024/02/23 08:20:30;;;;;;;5.95;1.55;;;6.80;71.90;;;;;;4998342;28;20052;-87
2024/02/23 08:22:56;;;;;;;3.90;2.00;;;6.90;73.00;;;;;;4989173;28;20042;-88
2024/02/23 08:25:23;;;;;;;1.23;0.90;;;7.10;70.60;;;;;;4997097;28;20098;-87
2024/02/23 08:27:49;;;;;;;1.85;0.63;;;7.30;69.50;;;;;;5030801;28;20048;-87
2024/02/23 08:30:15;;;;;;;2.35;1.50;;;7.30;69.90;;;;;;5022462;28;20033;-88
2024/02/23 08:32:41;;;;;;;3.47;1.05;;;7.30;68.50;;;;;;4983223;28;20031;-87
2024/02/23 08:35:08;;;;;;;4.05;1.25;;;7.40;67.60;;;;;;4989733;28;20076;-88
2024/02/23 08:37:33;;;;;;;2.88;0.80;;;7.40;65.10;;;;;;4987732;28;20102;-89
2024/02/23 08:39:59;;;;;;;3.35;1.30;;;7.40;64.50;;;;;;4995513;28;20051;-88
2024/02/23 08:42:25;;;;;;;4.93;1.35;;;7.50;65.40;;;;;;5029925;28;20038;-88
2024/02/23 08:44:51;;;;;;;4.80;1.83;;;7.50;65.10;;;;;;4986143;28;20073;-88
2024/02/23 08:47:17;;;;;;;3.17;0.90;;;7.60;65.30;;;;;;4997834;28;20034;-85
2024/02/23 08:49:42;;;;;;;8.35;1.30;;;7.80;62.70;;;;;;4987198;28;20026;-87
2024/02/23 08:52:08;;;;;;;2.28;1.35;;;8.00;62.90;;;;;;4997494;28;20080;-88
2024/02/23 08:54:33;;;;;;;3.50;1.73;;;8.10;60.10;;;;;;4994238;28;20428;-89
2024/02/23 08:56:59;;;;;;;5.05;1.45;;;8.30;61.00;;;;;;4988162;28;20082;-87
2024/02/23 08:59:25;;;;;;;3.03;1.35;;;8.50;59.10;;;;;;4986333;28;20023;-88
2024/02/23 09:01:50;;;;;;;4.82;0.82;;;8.50;60.10;;;;;;4987600;28;20045;-88
2024/02/23 09:04:16;;;;;;;2.35;1.05;;;8.50;60.30;;;;;;4992933;28;20215;-89
2024/02/23 09:06:41;;;;;;;2.20;1.02;;;8.50;60.10;;;;;;4996140;28;20072;-85
2024/02/23 09:09:08;;;;;;;1.95;0.85;;;8.40;60.10;;;;;;5027029;28;20103;-89
2024/02/23 09:11:34;;;;;;;4.38;1.08;;;8.50;62.50;;;;;;4995172;28;20034;-87
2024/02/23 09:13:59;;;;;;;3.83;1.35;;;8.70;61.10;;;;;;4987307;28;20022;-87
2024/02/23 09:16:25;;;;;;;5.22;1.42;;;8.50;59.40;;;;;;5005321;28;20077;-88
2024/02/23 09:18:51;;;;;;;2.88;1.30;;;8.60;61.30;;;;;;4995527;28;20022;-89
2024/02/23 09:21:17;;;;;;;2.85;0.98;;;8.70;61.50;;;;;;4995043;28;20105;-88
2024/02/23 09:23:43;;;;;;;2.83;1.27;;;8.60;59.70;;;;;;4994658;28;20071;-89
2024/02/23 09:26:11;;;;;;;4.38;1.27;;;8.40;59.30;;;;;;5012351;28;20027;-88
2024/02/23 09:28:38;;;;;;;4.88;1.40;;;8.60;60.00;;;;;;4994230;28;20075;-89
2024/02/23 09:31:04;;;;;;;3.97;1.92;;;8.70;61.30;;;;;;4996813;28;20022;-91
2024/02/23 09:33:30;;;;;;;5.35;1.42;;;8.80;61.90;;;;;;4999288;28;20022;-89
2024/02/23 09:35:57;;;;;;;2.75;1.13;;;8.70;59.80;;;;;;4997216;28;20023;-87
2024/02/23 09:38:26;;;;;;;4.22;1.50;;;8.50;61.10;;;;;;4999419;28;20058;-88
2024/02/23 09:40:52;;;;;;;3.38;0.98;;;8.60;62.20;;;;;;4988297;28;20477;-91
2024/02/23 09:43:19;;;;;;;3.50;1.33;;;8.50;62.10;;;;;;4994994;28;20111;-90
2024/02/23 09:45:46;;;;;;;6.65;1.20;;;8.50;61.40;;;;;;4998697;28;20025;-89
2024/02/23 09:48:16;;;;;;;2.03;1.05;;;8.50;61.20;;;;;;5006133;28;20030;-88
2024/02/23 09:50:42;;;;;;;3.90;1.10;;;8.50;62.10;;;;;;4983052;28;20027;-89
2024/02/23 09:53:11;;;;;;;2.13;1.17;;;8.80;64.50;;;;;;4985709;28;20050;-88
2024/02/23 09:55:37;;;;;;;4.05;1.30;;;8.80;62.20;;;;;;4989904;28;20485;-87
2024/02/23 09:58:04;;;;;;;5.57;1.48;;;8.80;61.40;;;;;;4992349;28;20056;-90
2024/02/23 10:00:31;;;;;;;7.47;2.72;;;9.00;62.50;;;;;;4992051;28;20396;-88
2024/02/23 10:02:58;;;;;;;6.00;1.20;;;9.00;59.70;;;;;;4992884;28;20027;-88
2024/02/23 10:05:30;;;;;;;2.85;1.52;;;8.90;61.60;;;;;;5026317;28;20030;-89
2024/02/23 10:07:58;;;;;;;4.18;2.95;;;8.90;60.10;;;;;;4992161;28;20030;-89
2024/02/23 10:10:33;;;;;;;2.58;1.23;;;8.90;60.10;;;;;;4987577;28;20090;-88
2024/02/23 10:13:00;;;;;;;1.67;1.10;;;9.10;59.30;;;;;;4992703;28;20580;-89
2024/02/23 10:15:26;;;;;;;5.20;1.55;;;9.20;57.70;;;;;;4993125;28;20026;-88
2024/02/23 10:17:54;;;;;;;3.38;1.08;;;9.10;57.70;;;;;;4992436;28;20027;-88
2024/02/23 10:20:19;;;;;;;2.35;1.90;;;9.00;57.50;;;;;;4993021;28;20030;-89
2024/02/23 10:22:45;;;;;;;5.88;1.17;;;9.20;59.20;;;;;;4992772;28;20019;-88
2024/02/23 10:25:11;;;;;;;3.10;0.88;;;9.20;54.70;;;;;;4994296;28;20462;-87
2024/02/23 10:27:37;;;;;;;4.85;1.23;;;9.40;55.20;;;;;;4990186;28;20500;-89
2024/02/23 10:30:03;;;;;;;4.50;2.22;;;9.50;56.80;;;;;;4992742;28;20030;-88
2024/02/23 10:32:32;;;;;;;5.53;1.02;;;9.40;55.30;;;;;;5025498;28;20036;-88
2024/02/23 10:35:03;;;;;;;3.50;1.33;;;9.60;55.40;;;;;;4992514;28;20027;-89
2024/02/23 10:37:31;;;;;;;2.38;1.42;;;9.60;55.90;;;;;;4991360;28;20027;-88
2024/02/23 10:39:58;;;;;;;;;;;9.50;56.40;;;;;;4991602;28;20026;-89
2024/02/23 10:42:27;;;;;;;6.50;1.67;;;9.50;56.40;;;;;;4992579;28;19905;-88
2024/02/23 10:44:55;;;;;;;4.45;1.50;;;10.00;54.10;;;;;;4993578;28;20023;-89
2024/02/23 10:47:22;;;;;;;8.07;1.42;;;9.80;53.40;;;;;;5016146;28;20083;-88
2024/02/23 10:49:48;;;;;;;5.38;1.13;;;9.60;55.40;;;;;;5058624;28;20017;-89
2024/02/23 10:52:17;;;;;;;3.92;1.10;;;9.60;55.00;;;;;;4992098;28;20026;-88
2024/02/23 10:54:46;;;;;;;4.82;1.42;;;9.30;57.40;;;;;;4994423;28;20023;-88
2024/02/23 10:57:13;;;;;;;7.07;2.13;;;9.20;58.40;;;;;;4971668;28;20031;-89
2024/02/23 10:59:39;;;;;;;5.55;1.52;;;9.10;59.80;;;;;;4987781;28;20031;-89
2024/02/23 11:02:06;;;;;;;3.17;1.05;;;9.10;59.70;;;;;;4993759;28;20019;-89
2024/02/23 11:04:33;;;;;;;1.98;0.80;;;9.00;59.60;;;;;;5025377;28;20051;-88
2024/02/23 11:07:04;;;;;;;5.55;1.58;;;9.10;60.90;;;;;;4990717;28;20048;-88
2024/02/23 11:09:32;;;;;;;10.55;2.40;;;9.20;59.80;;;;;;4994118;28;20033;-90
2024/02/23 11:11:58;;;;;;;6.55;1.33;;;9.20;60.60;;;;;;4987123;28;20101;-88
2024/02/23 11:14:36;;;;;;;3.45;1.98;;;9.30;60.30;;;;;;4987434;28;20112;-88
2024/02/23 11:17:03;;;;;;;4.68;0.82;;;9.30;61.30;;;;;;4991601;28;20030;-90
2024/02/23 11:19:36;;;;;;;3.60;1.20;;;9.40;60.40;;;;;;4981140;28;20027;-89
2024/02/23 11:22:03;;;;;;;6.47;1.20;;;9.20;61.60;;;;;;4992219;28;20057;-87
2024/02/23 11:24:30;;;;;;;4.78;1.40;;;9.10;61.00;;;;;;4993516;28;20026;-90
2024/02/23 11:26:57;;;;;;;7.10;1.80;;;9.30;60.70;;;;;;4992017;28;20031;-89
2024/02/23 11:29:29;;;;;;;2.90;1.23;;;9.50;58.60;;;;;;4993167;28;20049;-89
2024/02/23 11:32:00;;;;;;;4.85;1.75;;;9.50;61.10;;;;;;4992634;28;20026;-88
2024/02/23 11:34:30;;;;;;;2.53;2.03;;;9.70;59.70;;;;;;4992653;28;20479;-89
2024/02/23 11:36:58;;;;;;;3.53;1.65;;;10.00;57.40;;;;;;4993181;28;20030;-89
2024/02/23 11:39:23;;;;;;;;;;;10.00;56.20;;;;;;4985930;28;20118;-89
2024/02/23 11:41:50;;;;;;;4.07;1.80;;;9.90;57.40;;;;;;4990386;28;19987;-89
2024/02/23 11:44:17;;;;;;;4.25;1.48;;;9.80;55.70;;;;;;4981273;28;20018;-90
2024/02/23 11:46:44;;;;;;;4.43;1.92;;;9.70;58.40;;;;;;4980441;28;20106;-88
2024/02/23 11:49:10;;;;;;;3.55;1.05;;;10.00;56.80;;;;;;4974023;28;20027;-90
2024/02/23 11:51:36;;;;;;;5.40;1.20;;;10.00;56.80;;;;;;4976570;28;20057;-89
2024/02/23 11:54:03;;;;;;;5.55;2.10;;;10.30;55.80;;;;;;4974304;28;20030;-88
2024/02/23 11:56:29;;;;;;;2.22;1.17;;;10.50;55.30;;;;;;5001221;28;20030;-89
2024/02/23 11:58:55;;;;;;;3.33;1.58;;;10.40;52.90;;;;;;4979529;28;20022;-88
2024/02/23 12:01:21;;;;;;;3.15;1.10;;;10.20;53.80;;;;;;4986816;28;20031;-89
2024/02/23 12:03:47;;;;;;;2.67;1.02;;;10.10;55.40;;;;;;4989759;28;20504;-88
2024/02/23 12:06:18;;;;;;;4.20;1.10;;;9.80;54.70;;;;;;4991935;28;20480;-89
2024/02/23 12:08:45;;;;;;;6.25;2.17;;;9.90;56.30;;;;;;4991070;28;20027;-88
2024/02/23 12:11:11;;;;;;;4.72;1.15;;;9.90;56.20;;;;;;4990541;28;20034;-87
2024/02/23 12:13:38;;;;;;;5.38;1.70;;;10.00;57.40;;;;;;4977504;28;20030;-89
2024/02/23 12:16:05;;;;;;;7.55;1.23;;;10.30;55.80;;;;;;4977716;28;20019;-89
2024/02/23 12:18:33;;;;;;;5.55;1.58;;;10.50;56.40;;;;;;4977150;28;20023;-89
2024/02/23 12:21:01;;;;;;;6.43;1.63;;;10.80;55.40;;;;;;4971782;28;20019;-88
2024/02/23 12:23:26;;;;;;;;;;;10.70;53.00;;;;;;4974054;28;20519;-88
2024/02/23 12:25:56;;;;;;;5.13;1.58;;;11.20;54.60;;;;;;4980056;28;19906;-88
2024/02/23 12:28:23;;;;;;;8.55;2.15;;;11.10;50.50;;;;;;4973401;28;20450;-89
2024/02/23 12:31:02;;;;;;;2.60;0.90;;;11.10;51.70;;;;;;4993166;28;20044;-88
2024/02/23 12:33:32;;;;;;;2.10;1.27;;;10.70;52.30;;;;;;4997815;28;20053;-87
2024/02/23 12:36:02;;;;;;;5.00;1.67;;;10.40;53.70;;;;;;4988818;28;20034;-89
2024/02/23 12:38:28;;;;;;;4.00;1.65;;;10.30;53.90;;;;;;4999416;28;20033;-85
2024/02/23 12:40:54;;;;;;;4.47;1.15;;;10.30;54.50;;;;;;4997760;28;20030;-87
2024/02/23 12:43:29;;;;;;;6.75;1.83;;;10.00;54.10;;;;;;5022509;28;20042;-86
2024/02/23 12:45:58;;;;;;;3.80;2.05;;;10.00;55.90;;;;;;5003694;28;20633;-85
2024/02/23 12:51:24;;;;;;;3.22;1.67;;;10.00;55.00;;;;;;5117303;23;20052;-87
2024/02/23 12:54:19;;;;;;;5.70;1.30;;;9.80;54.80;;;;;;5072455;28;20028;-87
2024/02/23 12:56:47;;;;;;;5.22;1.02;;;9.90;57.20;;;;;;5075606;28;20028;-87